Bankersmith, Texas
Current Conditions -  °F | °C
As of 5:55 PM on Friday 19 Dec 2014 (Local Time) from KT82 Reporting Station
Overcast Overcast  
Wind Chill: 50°   Ceiling: 1500
Heat Index: 50°   Visibility: 10mi
Dew Point: 44°   Wind: 3mph
Humidity: 81%   Direction: 10°N
Pressure: 30.13"   Gusts: NA
Location:  30.3069°N, 98.8978°W
Report Text: KT82 192355Z AUTO 01003KT 10SM OVC015 10/07 A3013 RMK AO2 T00980067 10132 20098
Loading
Personal Weather Stations






























Interactive Weather Map New forecast layout! Learn more

10-Day Weather Forecast

Advertisements
Track Severe Weather on mobile